createdAt,value
2023-03-31T00:02:13.968Z,4.38
2023-03-31T00:04:53.170Z,2.33
2023-03-31T00:07:24.329Z,2.75
2023-03-31T00:10:00.910Z,2.20
2023-03-31T00:12:34.113Z,1.95
2023-03-31T00:15:01.536Z,3.13
2023-03-31T00:17:28.583Z,2.72
2023-03-31T00:20:00.511Z,1.80
2023-03-31T00:22:28.159Z,2.72
2023-03-31T00:24:55.624Z,1.58
2023-03-31T00:27:22.872Z,1.83
2023-03-31T00:29:50.829Z,1.85
2023-03-31T00:32:17.919Z,3.50
2023-03-31T00:34:46.443Z,2.08
2023-03-31T00:37:15.148Z,1.50
2023-03-31T00:39:43.499Z,2.00
2023-03-31T00:42:13.867Z,1.48
2023-03-31T00:45:14.998Z,3.17
2023-03-31T00:47:52.424Z,3.47
2023-03-31T00:50:30.993Z,3.00
2023-03-31T00:53:12.674Z,2.95
2023-03-31T00:55:51.239Z,2.47
2023-03-31T00:58:23.057Z,2.03
2023-03-31T01:00:53.228Z,3.00
2023-03-31T01:03:22.910Z,1.90
2023-03-31T01:05:55.616Z,2.40
2023-03-31T01:08:27.330Z,1.90
2023-03-31T01:11:01.175Z,2.38
2023-03-31T01:13:30.328Z,3.38
2023-03-31T01:15:57.557Z,6.72
2023-03-31T01:18:25.095Z,2.38
2023-03-31T01:21:07.974Z,2.45
2023-03-31T01:24:08.715Z,2.88
2023-03-31T01:26:54.964Z,1.98
2023-03-31T01:29:36.750Z,4.20
2023-03-31T01:32:44.530Z,3.20
2023-03-31T01:35:40.083Z,1.88
2023-03-31T01:38:48.673Z,2.00
2023-03-31T01:41:40.602Z,3.50
2023-03-31T01:44:26.101Z,2.13
2023-03-31T01:47:01.208Z,2.50
2023-03-31T01:49:49.893Z,3.40
2023-03-31T01:52:25.094Z,5.72
2023-03-31T01:55:00.704Z,3.63
2023-03-31T01:57:36.388Z,3.95
2023-03-31T02:00:11.697Z,5.35
2023-03-31T02:03:11.066Z,3.10
2023-03-31T02:05:57.491Z,3.15
2023-03-31T02:08:36.527Z,2.55
2023-03-31T02:11:03.986Z,3.35
2023-03-31T02:13:34.628Z,2.75
2023-03-31T02:16:08.299Z,3.03
2023-03-31T02:18:38.453Z,2.47
2023-03-31T02:21:09.041Z,4.10
2023-03-31T02:23:38.708Z,4.15
2023-03-31T02:26:26.006Z,5.05
2023-03-31T02:28:53.121Z,2.80
2023-03-31T02:31:29.012Z,4.00
2023-03-31T02:33:56.756Z,4.88
2023-03-31T02:36:24.408Z,4.50
2023-03-31T02:38:59.808Z,7.60
2023-03-31T02:41:26.903Z,8.40
2023-03-31T02:43:53.952Z,5.20
2023-03-31T02:46:21.757Z,3.47
2023-03-31T02:48:58.350Z,4.10
2023-03-31T02:51:28.433Z,3.53
2023-03-31T02:54:19.154Z,3.72
2023-03-31T02:56:52.295Z,4.13
2023-03-31T02:59:53.193Z,6.00
2023-03-31T03:02:49.475Z,4.95
2023-03-31T03:05:28.193Z,5.28
2023-03-31T03:08:19.617Z,3.75
2023-03-31T03:11:05.422Z,2.90
2023-03-31T03:13:36.810Z,5.95
2023-03-31T03:16:14.123Z,4.07
2023-03-31T03:18:41.341Z,3.92
2023-03-31T03:21:08.374Z,9.15
2023-03-31T03:23:35.466Z,4.50
2023-03-31T03:26:02.536Z,4.78
2023-03-31T03:28:29.608Z,4.68
2023-03-31T03:30:57.274Z,3.60
2023-03-31T03:33:25.249Z,6.28
2023-03-31T03:35:52.399Z,4.38
2023-03-31T03:38:19.734Z,4.82
2023-03-31T03:40:49.652Z,4.38
2023-03-31T03:43:17.194Z,5.78
2023-03-31T03:45:48.867Z,5.70
2023-03-31T03:48:16.217Z,4.72
2023-03-31T03:50:43.316Z,5.50
2023-03-31T03:53:10.328Z,4.07
2023-03-31T03:55:37.392Z,3.90
2023-03-31T03:58:04.479Z,6.30
2023-03-31T04:00:31.800Z,3.90
2023-03-31T04:02:58.936Z,3.72
2023-03-31T04:05:26.010Z,6.78
2023-03-31T04:07:53.081Z,4.43
2023-03-31T04:10:20.123Z,3.92
2023-03-31T04:12:47.207Z,8.15
2023-03-31T04:15:14.284Z,4.03
2023-03-31T04:17:41.358Z,6.22
2023-03-31T04:20:10.356Z,4.63
2023-03-31T04:22:41.256Z,3.88
2023-03-31T04:25:15.142Z,5.18
2023-03-31T04:27:50.922Z,3.60
2023-03-31T04:30:24.514Z,3.33
2023-03-31T04:32:53.527Z,4.45
2023-03-31T04:35:26.184Z,5.55
2023-03-31T04:38:00.342Z,3.75
2023-03-31T04:40:27.542Z,4.93
2023-03-31T04:42:54.593Z,6.68
2023-03-31T04:45:21.731Z,7.57
2023-03-31T04:47:48.794Z,4.85
2023-03-31T04:50:17.147Z,9.90
2023-03-31T04:52:44.739Z,6.35
2023-03-31T04:55:11.778Z,5.95
2023-03-31T04:57:38.856Z,7.78
2023-03-31T05:00:09.353Z,6.85
2023-03-31T05:02:36.473Z,6.05
2023-03-31T05:05:04.877Z,9.48
2023-03-31T05:07:32.216Z,4.63
2023-03-31T05:09:59.262Z,5.25
2023-03-31T05:12:26.291Z,8.60
2023-03-31T05:14:53.385Z,5.82
2023-03-31T05:17:20.598Z,9.55
2023-03-31T05:19:47.624Z,9.23
2023-03-31T05:22:14.713Z,8.07
2023-03-31T05:24:41.750Z,7.53
2023-03-31T05:27:08.803Z,8.23
2023-03-31T05:29:35.875Z,6.60
2023-03-31T05:32:03.644Z,5.50
2023-03-31T05:34:31.058Z,18.00
2023-03-31T05:36:58.734Z,41.90
2023-03-31T05:39:26.033Z,44.58
2023-03-31T05:41:53.222Z,15.13
2023-03-31T05:44:21.091Z,14.95
2023-03-31T05:46:48.189Z,23.02
2023-03-31T05:49:17.176Z,12.07
2023-03-31T05:51:44.242Z,12.85
2023-03-31T05:54:11.483Z,15.35
2023-03-31T05:56:38.548Z,14.88
2023-03-31T05:59:05.738Z,15.73
2023-03-31T06:01:33.180Z,20.85
2023-03-31T06:04:00.438Z,13.55
2023-03-31T06:06:28.140Z,11.68
2023-03-31T06:08:55.232Z,16.92
2023-03-31T06:11:23.402Z,8.60
2023-03-31T06:13:50.761Z,9.20
2023-03-31T06:16:19.135Z,9.23
2023-03-31T06:18:46.359Z,6.30
2023-03-31T06:21:16.469Z,6.00
2023-03-31T06:23:46.796Z,9.15
2023-03-31T06:26:16.679Z,9.25
2023-03-31T06:28:44.459Z,10.02
2023-03-31T06:31:15.003Z,7.65
2023-03-31T06:33:43.403Z,6.13
2023-03-31T06:36:13.137Z,8.90
2023-03-31T06:38:40.860Z,5.72
2023-03-31T06:41:11.376Z,6.25
2023-03-31T06:43:38.598Z,5.13
2023-03-31T06:46:07.346Z,4.90
2023-03-31T06:48:34.757Z,5.05
2023-03-31T06:51:04.335Z,6.03
2023-03-31T06:53:32.124Z,5.97
2023-03-31T06:55:59.598Z,5.18
2023-03-31T06:58:29.023Z,4.32
2023-03-31T07:00:57.869Z,4.72
2023-03-31T07:03:25.863Z,5.93
2023-03-31T07:05:54.347Z,4.45
2023-03-31T07:08:22.835Z,7.22
2023-03-31T07:10:54.533Z,3.95
2023-03-31T07:13:21.651Z,5.03
2023-03-31T07:15:49.391Z,3.80
2023-03-31T07:18:18.011Z,4.82
2023-03-31T07:20:48.710Z,3.30
2023-03-31T07:23:16.060Z,5.43
2023-03-31T07:25:43.278Z,3.00
2023-03-31T07:28:10.416Z,2.88
2023-03-31T07:30:37.628Z,7.03
2023-03-31T07:33:06.507Z,3.45
2023-03-31T07:35:33.614Z,3.40
2023-03-31T07:38:00.802Z,3.47
2023-03-31T07:40:29.643Z,4.57
2023-03-31T07:42:57.152Z,3.40
2023-03-31T07:45:27.178Z,3.95
2023-03-31T07:47:54.980Z,4.13
2023-03-31T07:50:23.039Z,7.65
2023-03-31T07:52:50.989Z,4.03
2023-03-31T07:55:20.182Z,5.88
2023-03-31T07:57:47.885Z,9.43
2023-03-31T08:00:16.137Z,3.75
2023-03-31T08:02:44.975Z,3.97
2023-03-31T08:05:14.264Z,11.48
2023-03-31T08:07:43.883Z,6.65
2023-03-31T08:10:18.364Z,4.68
2023-03-31T08:12:45.913Z,6.00
2023-03-31T08:15:12.986Z,7.57
2023-03-31T08:17:40.637Z,4.65
2023-03-31T08:20:08.921Z,4.57
2023-03-31T08:22:40.075Z,3.90
2023-03-31T08:25:08.532Z,4.95
2023-03-31T08:27:37.188Z,3.70
2023-03-31T08:30:06.838Z,6.85
2023-03-31T08:32:34.693Z,4.20
2023-03-31T08:35:02.007Z,5.78
2023-03-31T08:37:29.218Z,10.00
2023-03-31T08:39:56.773Z,6.10
2023-03-31T08:42:39.098Z,4.25
2023-03-31T08:45:36.753Z,10.40
2023-03-31T08:48:18.573Z,6.97
2023-03-31T08:50:51.584Z,6.78
2023-03-31T08:53:26.728Z,9.40
2023-03-31T08:55:56.220Z,5.50
2023-03-31T08:58:45.880Z,5.97
2023-03-31T09:01:22.202Z,5.78
2023-03-31T09:04:09.396Z,4.38
2023-03-31T09:06:59.666Z,3.60
2023-03-31T09:09:50.771Z,3.75
2023-03-31T09:12:44.726Z,6.57
2023-03-31T09:15:36.152Z,6.28
2023-03-31T09:18:25.399Z,6.28
2023-03-31T09:20:57.308Z,11.02
2023-03-31T09:23:44.784Z,5.80
2023-03-31T09:26:42.532Z,9.23
2023-03-31T09:29:29.860Z,5.25
2023-03-31T09:32:03.246Z,4.57
2023-03-31T09:34:34.076Z,10.07
2023-03-31T09:37:01.742Z,4.97
2023-03-31T09:39:28.870Z,8.10
2023-03-31T09:41:56.815Z,5.97
2023-03-31T09:44:38.089Z,7.13
2023-03-31T09:47:10.917Z,6.63
2023-03-31T09:49:39.763Z,5.70
2023-03-31T09:52:24.162Z,7.80
2023-03-31T09:54:53.265Z,5.60
2023-03-31T09:57:40.785Z,5.97
2023-03-31T10:00:20.038Z,4.77
2023-03-31T10:02:52.613Z,5.33
2023-03-31T10:05:48.538Z,5.60
2023-03-31T10:08:53.781Z,4.30
2023-03-31T10:11:21.087Z,7.83
2023-03-31T10:14:04.028Z,6.00
2023-03-31T10:16:55.477Z,11.80
2023-03-31T10:19:24.118Z,2.90
2023-03-31T10:22:06.757Z,7.03
2023-03-31T10:24:40.052Z,5.07
2023-03-31T10:27:33.755Z,3.90
2023-03-31T10:30:09.999Z,7.60
2023-03-31T10:32:43.335Z,3.43
2023-03-31T10:35:26.962Z,7.43
2023-03-31T10:38:04.672Z,4.13
2023-03-31T10:40:36.573Z,6.70
2023-03-31T10:43:25.289Z,5.00
2023-03-31T10:46:00.781Z,6.25
2023-03-31T10:48:29.322Z,4.60
2023-03-31T10:51:01.734Z,5.10
2023-03-31T10:53:28.984Z,6.00
2023-03-31T10:56:02.968Z,5.40
2023-03-31T10:58:29.929Z,7.20
2023-03-31T11:01:11.190Z,4.77
2023-03-31T11:03:50.755Z,6.03
2023-03-31T11:06:49.574Z,10.47
2023-03-31T11:09:37.702Z,5.40
2023-03-31T11:12:21.065Z,6.20
2023-03-31T11:15:13.371Z,3.93
2023-03-31T11:18:31.116Z,3.83
2023-03-31T11:21:23.001Z,5.63
2023-03-31T11:24:20.349Z,4.33
2023-03-31T11:26:54.528Z,3.47
2023-03-31T11:29:39.876Z,4.73
2023-03-31T11:32:25.870Z,4.93
2023-03-31T11:34:59.093Z,6.37
2023-03-31T11:37:41.732Z,4.37
2023-03-31T11:40:14.586Z,5.27
2023-03-31T11:42:49.627Z,4.30
2023-03-31T11:45:25.762Z,3.57
2023-03-31T11:47:59.486Z,3.47
2023-03-31T11:50:34.818Z,5.47
2023-03-31T11:53:25.763Z,4.43
2023-03-31T11:55:56.043Z,5.57
2023-03-31T11:58:49.983Z,7.23
2023-03-31T12:02:05.717Z,4.10
2023-03-31T12:04:43.444Z,3.70
2023-03-31T12:07:41.943Z,12.27
2023-03-31T12:10:29.628Z,3.80
2023-03-31T12:13:02.992Z,7.20
2023-03-31T12:15:41.124Z,6.10
2023-03-31T12:18:18.626Z,3.03
2023-03-31T12:20:52.207Z,5.93
2023-03-31T12:23:23.774Z,4.23
2023-03-31T12:26:08.549Z,4.43
2023-03-31T12:28:38.920Z,4.50
2023-03-31T12:31:10.591Z,4.60
2023-03-31T12:33:46.948Z,5.37
2023-03-31T12:36:19.841Z,5.33
2023-03-31T12:38:58.696Z,9.60
2023-03-31T12:41:41.042Z,5.53
2023-03-31T12:44:29.639Z,5.60
2023-03-31T12:46:56.699Z,8.10
2023-03-31T12:49:30.080Z,7.00
2023-03-31T12:52:12.652Z,7.23
2023-03-31T12:54:55.789Z,5.93
2023-03-31T12:57:26.915Z,8.80
2023-03-31T13:00:17.571Z,5.67
2023-03-31T13:02:44.920Z,5.10
2023-03-31T13:05:39.761Z,6.07
2023-03-31T13:08:09.344Z,3.50
2023-03-31T13:10:57.963Z,5.40
2023-03-31T13:13:26.729Z,5.23
2023-03-31T13:15:57.080Z,6.00
2023-03-31T13:18:25.019Z,8.00
2023-03-31T13:23:37.575Z,6.30
2023-03-31T13:26:07.294Z,4.40
2023-03-31T13:28:42.675Z,4.57
2023-03-31T13:31:12.455Z,3.00
2023-03-31T13:33:57.523Z,5.43
2023-03-31T13:36:36.000Z,3.57
2023-03-31T13:39:21.536Z,4.67
2023-03-31T13:42:10.284Z,9.43
2023-03-31T13:45:00.580Z,3.97
2023-03-31T13:47:51.674Z,6.17
2023-03-31T13:50:39.737Z,6.83
2023-03-31T13:53:48.351Z,7.93
2023-03-31T13:56:33.933Z,4.00
2023-03-31T13:59:18.554Z,3.80
2023-03-31T14:01:54.744Z,2.10
2023-03-31T14:05:00.576Z,3.43
2023-03-31T14:07:46.465Z,4.90
2023-03-31T14:10:30.332Z,3.40
2023-03-31T14:13:17.801Z,4.33
2023-03-31T14:15:58.812Z,3.03
2023-03-31T14:18:34.204Z,5.17
2023-03-31T14:21:29.988Z,3.20
2023-03-31T14:24:15.086Z,6.23
2023-03-31T14:26:54.564Z,2.40
2023-03-31T14:29:31.083Z,3.60
2023-03-31T14:32:29.513Z,3.07
2023-03-31T14:35:09.974Z,3.77
2023-03-31T14:37:37.194Z,4.87
2023-03-31T14:40:05.496Z,4.20
2023-03-31T14:42:40.855Z,2.40
2023-03-31T14:45:18.231Z,4.30
2023-03-31T14:47:54.887Z,4.50
2023-03-31T14:50:22.402Z,3.20
2023-03-31T14:52:55.786Z,4.03
2023-03-31T14:55:35.661Z,7.30
2023-03-31T14:58:17.068Z,3.60
2023-03-31T15:00:45.742Z,3.90
2023-03-31T15:03:15.998Z,3.77
2023-03-31T15:05:48.181Z,3.73
2023-03-31T15:08:22.378Z,4.00
2023-03-31T15:11:12.029Z,5.17
2023-03-31T15:14:03.496Z,6.30
2023-03-31T15:16:42.109Z,3.00
2023-03-31T15:19:22.954Z,3.77
2023-03-31T15:22:14.577Z,4.70
2023-03-31T15:24:41.787Z,3.13
2023-03-31T15:27:23.509Z,2.40
2023-03-31T15:29:58.837Z,1.87
2023-03-31T15:32:29.708Z,3.55
2023-03-31T15:35:04.786Z,2.78
2023-03-31T15:37:43.708Z,1.80
2023-03-31T15:40:29.299Z,2.15
2023-03-31T15:43:28.287Z,2.22
2023-03-31T15:46:00.652Z,2.30
2023-03-31T15:48:35.902Z,3.17
2023-03-31T15:51:30.358Z,5.00
2023-03-31T15:53:57.602Z,1.50
2023-03-31T15:56:34.929Z,1.90
2023-03-31T15:59:19.741Z,2.25
2023-03-31T16:01:47.137Z,3.00
2023-03-31T16:04:16.085Z,1.58
2023-03-31T16:06:53.111Z,1.25
2023-03-31T16:09:26.740Z,1.10
2023-03-31T16:12:10.887Z,2.60
2023-03-31T16:14:58.316Z,5.45
2023-03-31T16:17:40.526Z,4.82
2023-03-31T16:20:27.302Z,4.25
2023-03-31T16:23:01.750Z,2.80
2023-03-31T16:25:31.842Z,2.28
2023-03-31T16:28:01.999Z,3.17
2023-03-31T16:30:43.383Z,1.77
2023-03-31T16:33:13.569Z,1.90
2023-03-31T16:35:53.873Z,2.33
2023-03-31T16:38:30.891Z,2.13
2023-03-31T16:40:59.106Z,2.70
2023-03-31T16:43:28.472Z,4.93
2023-03-31T16:45:59.273Z,5.00
2023-03-31T16:48:28.531Z,3.85
2023-03-31T16:50:58.092Z,3.80
2023-03-31T16:53:31.213Z,2.88
2023-03-31T16:55:58.853Z,3.40
2023-03-31T16:58:28.546Z,3.65
2023-03-31T17:00:57.401Z,2.35
2023-03-31T17:03:27.947Z,2.70
2023-03-31T17:05:59.159Z,2.80
2023-03-31T17:08:28.230Z,3.17
2023-03-31T17:11:00.518Z,2.08
2023-03-31T17:13:28.108Z,2.20
2023-03-31T17:16:04.553Z,2.30
2023-03-31T17:18:36.222Z,2.72
2023-03-31T17:21:08.920Z,4.07
2023-03-31T17:23:37.448Z,2.55
2023-03-31T17:26:10.304Z,3.50
2023-03-31T17:28:38.296Z,2.95
2023-03-31T17:31:20.590Z,1.98
2023-03-31T17:33:48.809Z,4.45
2023-03-31T17:36:18.954Z,4.55
2023-03-31T17:38:46.675Z,2.30
2023-03-31T17:41:14.932Z,3.80
2023-03-31T17:43:47.526Z,2.90
2023-03-31T17:46:16.500Z,3.17
2023-03-31T17:48:44.911Z,3.17
2023-03-31T17:51:15.502Z,2.80
2023-03-31T17:53:45.551Z,4.95
2023-03-31T17:56:14.634Z,3.78
2023-03-31T17:58:41.880Z,3.45
2023-03-31T18:01:11.982Z,3.10
2023-03-31T18:03:39.451Z,2.85
2023-03-31T18:06:12.632Z,2.97
2023-03-31T18:08:41.844Z,1.80
2023-03-31T18:11:11.846Z,2.85
2023-03-31T18:13:40.238Z,1.65
2023-03-31T18:16:10.070Z,2.55
2023-03-31T18:18:38.161Z,3.67
2023-03-31T18:21:11.286Z,2.33
2023-03-31T18:23:39.543Z,4.68
2023-03-31T18:26:09.148Z,4.85
2023-03-31T18:28:37.495Z,2.50
2023-03-31T18:31:10.218Z,3.55
2023-03-31T18:33:38.490Z,2.72
2023-03-31T18:36:07.595Z,2.92
2023-03-31T18:38:37.494Z,1.80
2023-03-31T18:41:05.793Z,2.42
2023-03-31T18:43:34.228Z,4.05
2023-03-31T18:46:02.438Z,6.18
2023-03-31T18:48:30.629Z,5.10
2023-03-31T18:50:59.917Z,3.40
2023-03-31T18:53:28.544Z,3.38
2023-03-31T18:55:59.344Z,2.60
2023-03-31T18:58:29.999Z,4.30
2023-03-31T19:00:59.488Z,3.20
2023-03-31T19:03:27.606Z,4.45
2023-03-31T19:06:03.892Z,4.97
2023-03-31T19:08:32.905Z,3.97
2023-03-31T19:11:09.053Z,3.15
2023-03-31T19:13:37.056Z,1.85
2023-03-31T19:16:05.131Z,2.95
2023-03-31T19:18:33.396Z,2.50
2023-03-31T19:21:04.321Z,2.20
2023-03-31T19:23:33.260Z,3.35
2023-03-31T19:26:01.250Z,3.88
2023-03-31T19:28:30.926Z,5.65
2023-03-31T19:30:59.545Z,3.70
2023-03-31T19:33:27.793Z,3.67
2023-03-31T19:35:55.073Z,8.23
2023-03-31T19:38:23.248Z,6.05
2023-03-31T19:40:51.557Z,3.70
2023-03-31T19:43:24.796Z,3.85
2023-03-31T19:45:54.807Z,4.75
2023-03-31T19:48:22.872Z,3.65
2023-03-31T19:50:56.525Z,3.45
2023-03-31T19:53:24.668Z,1.83
2023-03-31T19:56:03.635Z,3.30
2023-03-31T19:58:35.767Z,4.57
2023-03-31T20:01:09.479Z,3.45
2023-03-31T20:03:37.701Z,2.95
2023-03-31T20:06:07.670Z,2.67
2023-03-31T20:08:36.410Z,5.53
2023-03-31T20:11:08.889Z,6.57
2023-03-31T20:13:36.480Z,9.52
2023-03-31T20:16:09.472Z,7.65
2023-03-31T20:18:39.119Z,7.85
2023-03-31T20:21:13.646Z,9.68
2023-03-31T20:23:46.289Z,7.10
2023-03-31T20:26:17.918Z,10.63
2023-03-31T20:28:46.934Z,5.80
2023-03-31T20:31:33.669Z,4.57
2023-03-31T20:34:02.361Z,4.13
2023-03-31T20:36:32.152Z,2.97
2023-03-31T20:39:03.107Z,3.83
2023-03-31T20:41:31.388Z,4.22
2023-03-31T20:43:59.392Z,4.50
2023-03-31T20:46:27.046Z,3.65
2023-03-31T20:48:57.367Z,6.15
2023-03-31T20:51:30.679Z,5.18
2023-03-31T20:53:59.852Z,4.85
2023-03-31T20:56:36.161Z,3.03
2023-03-31T20:59:04.817Z,4.38
2023-03-31T21:01:34.526Z,2.35
2023-03-31T21:04:03.545Z,2.60
2023-03-31T21:06:36.041Z,3.80
2023-03-31T21:09:03.654Z,4.88
2023-03-31T21:11:31.362Z,6.65
2023-03-31T21:13:58.448Z,4.22
2023-03-31T21:16:25.666Z,5.78
2023-03-31T21:18:55.079Z,3.75
2023-03-31T21:21:24.605Z,4.20
2023-03-31T21:23:52.414Z,5.80
2023-03-31T21:26:20.037Z,4.38
2023-03-31T21:28:48.301Z,3.60
2023-03-31T21:31:18.150Z,6.88
2023-03-31T21:33:47.183Z,2.63
2023-03-31T21:36:18.351Z,2.95
2023-03-31T21:38:45.859Z,3.35
2023-03-31T21:41:15.293Z,3.03
2023-03-31T21:43:43.208Z,4.00
2023-03-31T21:46:20.791Z,2.50
2023-03-31T21:48:49.550Z,3.80
2023-03-31T21:51:18.457Z,4.15
2023-03-31T21:53:46.152Z,2.10
2023-03-31T21:56:13.332Z,4.55
2023-03-31T21:58:40.627Z,3.55
2023-03-31T22:01:08.558Z,3.65
2023-03-31T22:03:36.839Z,3.22
2023-03-31T22:06:07.026Z,1.80
2023-03-31T22:08:36.617Z,2.78
2023-03-31T22:11:06.360Z,1.38
2023-03-31T22:13:33.779Z,5.03
2023-03-31T22:16:02.262Z,2.13
2023-03-31T22:18:30.140Z,3.40
2023-03-31T22:20:57.526Z,2.58
2023-03-31T22:23:24.908Z,3.47
2023-03-31T22:25:52.108Z,2.53
2023-03-31T22:28:19.120Z,1.45
2023-03-31T22:30:46.477Z,1.75
2023-03-31T22:33:13.593Z,1.85
2023-03-31T22:35:40.670Z,1.85
2023-03-31T22:38:08.684Z,2.35
2023-03-31T22:40:36.514Z,1.63
2023-03-31T22:43:04.021Z,1.63
2023-03-31T22:45:31.636Z,2.45
2023-03-31T22:47:58.961Z,1.63
2023-03-31T22:50:26.008Z,1.85
2023-03-31T22:52:53.075Z,1.10
2023-03-31T22:55:20.118Z,2.75
2023-03-31T22:57:47.287Z,1.38
2023-03-31T23:00:14.946Z,1.02
2023-03-31T23:02:42.415Z,0.80
2023-03-31T23:05:10.581Z,2.85
2023-03-31T23:07:38.724Z,1.27
2023-03-31T23:10:06.549Z,1.25
2023-03-31T23:12:33.645Z,1.40
2023-03-31T23:15:00.725Z,1.48
2023-03-31T23:17:27.901Z,1.65
2023-03-31T23:19:55.013Z,1.20
2023-03-31T23:22:22.117Z,2.10
2023-03-31T23:24:49.700Z,2.17
2023-03-31T23:27:16.720Z,1.75
2023-03-31T23:29:44.182Z,3.13
2023-03-31T23:32:11.295Z,2.17
2023-03-31T23:34:41.911Z,1.98
2023-03-31T23:37:11.181Z,2.15
2023-03-31T23:39:39.117Z,3.45
2023-03-31T23:42:07.476Z,1.02
2023-03-31T23:44:37.920Z,1.73
2023-03-31T23:47:05.977Z,1.73
2023-03-31T23:49:33.761Z,1.00
2023-03-31T23:52:00.916Z,1.52
2023-03-31T23:54:28.044Z,1.52
2023-03-31T23:56:55.155Z,1.02
2023-03-31T23:59:22.402Z,0.80
